createdAt,value
2023-01-22T00:00:28.876Z,72.97
2023-01-22T00:02:30.486Z,39.88
2023-01-22T00:04:32.629Z,48.65
2023-01-22T00:06:34.135Z,60.60
2023-01-22T00:08:36.074Z,34.78
2023-01-22T00:10:37.577Z,27.05
2023-01-22T00:12:39.138Z,38.58
2023-01-22T00:14:40.793Z,26.42
2023-01-22T00:16:42.698Z,31.75
2023-01-22T00:18:44.346Z,34.88
2023-01-22T00:20:53.650Z,32.10
2023-01-22T00:22:55.176Z,53.00
2023-01-22T00:24:56.680Z,51.20
2023-01-22T00:27:00.966Z,71.03
2023-01-22T00:29:03.431Z,166.00
2023-01-22T00:31:06.327Z,93.25
2023-01-22T00:33:08.326Z,82.43
2023-01-22T00:35:09.807Z,64.15
2023-01-22T00:37:11.266Z,58.05
2023-01-22T00:39:12.817Z,49.65
2023-01-22T00:41:14.872Z,37.42
2023-01-22T00:43:16.450Z,35.30
2023-01-22T00:45:17.960Z,28.38
2023-01-22T00:47:19.513Z,25.75
2023-01-22T00:49:21.022Z,27.55
2023-01-22T00:51:22.651Z,27.77
2023-01-22T00:53:24.262Z,36.83
2023-01-22T00:55:25.769Z,36.42
2023-01-22T00:57:27.295Z,29.23
2023-01-22T00:59:28.789Z,37.90
2023-01-22T01:01:30.308Z,32.63
2023-01-22T01:03:32.150Z,23.58
2023-01-22T01:05:33.904Z,20.55
2023-01-22T01:07:35.530Z,22.67
2023-01-22T01:09:37.213Z,16.13
2023-01-22T01:11:38.766Z,18.02
2023-01-22T01:13:43.022Z,20.88
2023-01-22T01:15:44.698Z,21.13
2023-01-22T01:17:46.404Z,19.45
2023-01-22T01:19:47.955Z,20.80
2023-01-22T01:21:49.478Z,23.65
2023-01-22T01:23:50.971Z,23.77
2023-01-22T01:25:52.477Z,22.77
2023-01-22T01:27:54.015Z,24.60
2023-01-22T01:29:55.603Z,23.08
2023-01-22T01:31:57.939Z,22.73
2023-01-22T01:33:59.796Z,24.08
2023-01-22T01:36:02.111Z,30.38
2023-01-22T01:38:03.783Z,30.58
2023-01-22T01:40:05.952Z,35.00
2023-01-22T01:42:07.459Z,37.00
2023-01-22T01:44:13.723Z,30.13
2023-01-22T01:46:24.736Z,43.28
2023-01-22T01:48:36.125Z,42.22
2023-01-22T01:50:40.561Z,36.95
2023-01-22T01:52:42.059Z,35.30
2023-01-22T01:54:49.389Z,27.90
2023-01-22T01:56:54.987Z,24.17
2023-01-22T01:59:02.666Z,20.70
2023-01-22T02:01:10.461Z,24.10
2023-01-22T02:03:11.982Z,29.55
2023-01-22T02:05:13.550Z,21.05
2023-01-22T02:07:15.245Z,23.85
2023-01-22T02:09:16.746Z,26.70
2023-01-22T02:11:20.006Z,22.13
2023-01-22T02:13:27.419Z,21.63
2023-01-22T02:15:29.280Z,23.80
2023-01-22T02:17:31.043Z,24.98
2023-01-22T02:19:32.616Z,23.10
2023-01-22T02:21:35.850Z,42.65
2023-01-22T02:23:37.360Z,38.53
2023-01-22T02:25:38.959Z,27.55
2023-01-22T02:27:40.457Z,19.77
2023-01-22T02:29:42.076Z,18.55
2023-01-22T02:31:43.738Z,20.02
2023-01-22T02:33:45.379Z,32.42
2023-01-22T02:35:46.906Z,32.38
2023-01-22T02:37:49.170Z,31.27
2023-01-22T02:39:50.737Z,35.33
2023-01-22T02:41:52.616Z,23.65
2023-01-22T02:43:54.276Z,25.35
2023-01-22T02:45:55.852Z,26.88
2023-01-22T02:47:57.343Z,22.48
2023-01-22T02:49:58.841Z,14.82
2023-01-22T02:52:00.365Z,27.15
2023-01-22T02:54:02.041Z,25.02
2023-01-22T02:56:08.268Z,20.95
2023-01-22T02:58:09.752Z,16.35
2023-01-22T03:00:11.925Z,17.08
2023-01-22T03:02:13.643Z,16.65
2023-01-22T03:04:15.143Z,15.82
2023-01-22T03:06:21.422Z,14.70
2023-01-22T03:08:26.672Z,18.33
2023-01-22T03:10:28.205Z,15.63
2023-01-22T03:12:29.738Z,14.63
2023-01-22T03:14:50.166Z,14.52
2023-01-22T03:17:10.569Z,18.35
2023-01-22T03:19:30.555Z,17.52
2023-01-22T03:21:32.118Z,23.02
2023-01-22T03:23:33.719Z,23.95
2023-01-22T03:25:35.325Z,17.17
2023-01-22T03:27:36.935Z,20.67
2023-01-22T03:29:38.653Z,15.75
2023-01-22T03:31:40.325Z,18.08
2023-01-22T03:33:43.159Z,15.40
2023-01-22T03:35:44.775Z,14.50
2023-01-22T03:37:46.301Z,15.52
2023-01-22T03:39:48.194Z,14.40
2023-01-22T03:41:49.712Z,19.10
2023-01-22T03:43:51.249Z,16.27
2023-01-22T03:45:52.805Z,19.00
2023-01-22T03:47:54.783Z,18.90
2023-01-22T03:49:56.292Z,21.13
2023-01-22T03:51:57.838Z,18.30
2023-01-22T03:53:59.761Z,18.88
2023-01-22T03:56:04.069Z,19.23
2023-01-22T03:58:05.650Z,17.40
2023-01-22T04:00:07.955Z,17.25
2023-01-22T04:02:09.510Z,18.38
2023-01-22T04:04:11.080Z,16.60
2023-01-22T04:06:13.326Z,18.92
2023-01-22T04:08:14.843Z,21.27
2023-01-22T04:10:17.809Z,20.30
2023-01-22T04:12:19.501Z,22.30
2023-01-22T04:14:21.021Z,23.50
2023-01-22T04:16:22.678Z,23.33
2023-01-22T04:18:24.264Z,23.67
2023-01-22T04:20:25.854Z,22.42
2023-01-22T04:22:27.345Z,23.00
2023-01-22T04:24:28.826Z,23.02
2023-01-22T04:26:30.320Z,20.85
2023-01-22T04:28:31.985Z,18.65
2023-01-22T04:30:33.656Z,23.63
2023-01-22T04:32:35.186Z,20.85
2023-01-22T04:34:36.689Z,22.77
2023-01-22T04:36:38.203Z,22.80
2023-01-22T04:38:40.033Z,25.75
2023-01-22T04:40:41.539Z,27.48
2023-01-22T04:42:43.071Z,26.00
2023-01-22T04:44:44.581Z,34.88
2023-01-22T04:46:46.138Z,27.50
2023-01-22T04:48:47.636Z,25.70
2023-01-22T04:50:49.165Z,23.70
2023-01-22T04:52:51.917Z,34.67
2023-01-22T04:54:53.943Z,32.08
2023-01-22T04:56:55.504Z,35.92
2023-01-22T04:58:57.012Z,34.13
2023-01-22T05:00:58.800Z,21.55
2023-01-22T05:03:02.944Z,18.33
2023-01-22T05:05:08.731Z,23.13
2023-01-22T05:07:10.203Z,29.67
2023-01-22T05:09:11.690Z,24.00
2023-01-22T05:11:13.198Z,35.50
2023-01-22T05:13:14.667Z,21.95
2023-01-22T05:15:24.157Z,18.58
2023-01-22T05:17:26.461Z,51.33
2023-01-22T05:19:28.132Z,27.50
2023-01-22T05:21:29.639Z,34.63
2023-01-22T05:23:31.165Z,17.40
2023-01-22T05:25:32.680Z,20.45
2023-01-22T05:27:34.197Z,17.33
2023-01-22T05:29:35.721Z,22.17
2023-01-22T05:31:37.277Z,24.42
2023-01-22T05:33:42.720Z,35.05
2023-01-22T05:35:44.245Z,52.63
2023-01-22T05:37:45.740Z,45.55
2023-01-22T05:39:47.281Z,52.05
2023-01-22T05:41:48.854Z,64.13
2023-01-22T05:43:50.393Z,50.13
2023-01-22T05:45:52.020Z,41.72
2023-01-22T05:47:54.315Z,39.17
2023-01-22T05:49:55.824Z,51.58
2023-01-22T05:51:57.331Z,43.22
2023-01-22T05:53:58.900Z,45.80
2023-01-22T05:56:04.720Z,49.83
2023-01-22T05:58:06.532Z,37.72
2023-01-22T06:00:08.841Z,47.55
2023-01-22T06:02:10.412Z,113.65
2023-01-22T06:04:11.958Z,71.00
2023-01-22T06:06:14.997Z,129.60
2023-01-22T06:08:16.576Z,65.45
2023-01-22T06:10:18.467Z,92.65
2023-01-22T06:12:20.141Z,93.93
2023-01-22T06:14:21.647Z,174.38
2023-01-22T06:16:23.270Z,114.40
2023-01-22T06:18:25.604Z,84.07
2023-01-22T06:20:27.159Z,50.28
2023-01-22T06:22:28.660Z,64.65
2023-01-22T06:24:30.187Z,49.50
2023-01-22T06:26:31.761Z,46.05
2023-01-22T06:28:33.331Z,59.58
2023-01-22T06:30:36.002Z,71.68
2023-01-22T06:32:37.618Z,61.35
2023-01-22T06:34:39.644Z,51.83
2023-01-22T06:36:43.524Z,58.97
2023-01-22T06:38:45.236Z,52.90
2023-01-22T06:40:53.708Z,43.33
2023-01-22T06:42:55.218Z,53.00
2023-01-22T06:44:56.718Z,46.80
2023-01-22T06:46:58.199Z,49.83
2023-01-22T06:49:01.758Z,67.85
2023-01-22T06:51:03.430Z,58.67
2023-01-22T06:53:05.059Z,61.38
2023-01-22T06:55:06.855Z,63.33
2023-01-22T06:57:08.349Z,63.88
2023-01-22T06:59:09.878Z,68.25
2023-01-22T07:01:11.477Z,72.55
2023-01-22T07:03:13.449Z,51.80
2023-01-22T07:05:15.654Z,53.45
2023-01-22T07:07:17.215Z,132.35
2023-01-22T07:09:18.708Z,96.70
2023-01-22T07:11:20.221Z,137.70
2023-01-22T07:13:21.989Z,53.97
2023-01-22T07:15:23.499Z,69.43
2023-01-22T07:17:24.980Z,58.67
2023-01-22T07:19:26.537Z,42.08
2023-01-22T07:21:28.016Z,65.72
2023-01-22T07:23:30.220Z,51.30
2023-01-22T07:25:31.757Z,29.83
2023-01-22T07:27:34.990Z,54.65
2023-01-22T07:29:36.566Z,40.95
2023-01-22T07:31:38.138Z,48.67
2023-01-22T07:33:39.727Z,42.03
2023-01-22T07:35:42.221Z,45.40
2023-01-22T07:37:43.772Z,57.97
2023-01-22T07:39:45.417Z,70.80
2023-01-22T07:41:46.905Z,107.32
2023-01-22T07:43:49.430Z,112.00
2023-01-22T07:45:50.967Z,67.07
2023-01-22T07:47:57.352Z,76.40
2023-01-22T07:49:58.852Z,50.10
2023-01-22T07:52:03.385Z,76.97
2023-01-22T07:54:05.144Z,78.65
2023-01-22T07:56:06.965Z,143.63
2023-01-22T07:58:08.773Z,141.55
2023-01-22T08:00:11.583Z,74.75
2023-01-22T08:02:14.297Z,55.30
2023-01-22T08:04:15.837Z,62.40
2023-01-22T08:06:20.784Z,82.25
2023-01-22T08:08:22.284Z,65.40
2023-01-22T08:10:23.810Z,31.90
2023-01-22T08:12:25.464Z,54.53
2023-01-22T08:14:27.064Z,83.93
2023-01-22T08:16:29.036Z,35.80
2023-01-22T08:18:30.627Z,35.45
2023-01-22T08:20:32.143Z,40.17
2023-01-22T08:22:33.739Z,39.60
2023-01-22T08:24:35.391Z,25.23
2023-01-22T08:26:37.160Z,34.38
2023-01-22T08:28:38.979Z,52.10
2023-01-22T08:30:46.585Z,40.22
2023-01-22T08:32:50.357Z,481.45
2023-01-22T08:34:54.341Z,63.42
2023-01-22T08:36:55.928Z,82.32
2023-01-22T08:38:57.489Z,100.03
2023-01-22T08:40:59.077Z,41.67
2023-01-22T08:43:00.643Z,50.15
2023-01-22T08:45:02.190Z,79.82
2023-01-22T08:47:03.825Z,130.95
2023-01-22T08:49:05.359Z,113.32
2023-01-22T08:51:06.904Z,83.97
2023-01-22T08:53:08.558Z,70.15
2023-01-22T08:55:10.166Z,57.83
2023-01-22T08:57:11.709Z,33.45
2023-01-22T08:59:13.205Z,41.70
2023-01-22T09:01:16.981Z,48.40
2023-01-22T09:03:18.505Z,48.30
2023-01-22T09:05:19.978Z,41.38
2023-01-22T09:07:21.474Z,46.65
2023-01-22T09:09:23.320Z,38.22
2023-01-22T09:11:27.441Z,33.95
2023-01-22T09:13:28.938Z,37.83
2023-01-22T09:15:30.432Z,40.30
2023-01-22T09:17:32.274Z,46.90
2023-01-22T09:19:33.757Z,74.03
2023-01-22T09:21:37.362Z,82.45
2023-01-22T09:23:38.988Z,46.28
2023-01-22T09:25:40.609Z,25.10
2023-01-22T09:27:42.349Z,33.97
2023-01-22T09:29:45.058Z,33.17
2023-01-22T09:31:46.614Z,40.75
2023-01-22T09:33:48.158Z,37.17
2023-01-22T09:35:49.771Z,46.85
2023-01-22T09:37:51.272Z,33.17
2023-01-22T09:39:52.930Z,35.45
2023-01-22T09:41:57.813Z,53.63
2023-01-22T09:44:19.500Z,48.10
2023-01-22T09:46:36.665Z,94.13
2023-01-22T09:48:46.049Z,34.65
2023-01-22T09:50:48.632Z,53.58
2023-01-22T09:52:52.341Z,60.10
2023-01-22T09:54:53.956Z,116.25
2023-01-22T09:57:01.700Z,112.55
2023-01-22T09:59:06.076Z,48.60
2023-01-22T10:01:07.660Z,49.22
2023-01-22T10:03:24.053Z,60.53
2023-01-22T10:05:41.119Z,45.65
2023-01-22T10:07:51.084Z,45.60
2023-01-22T10:09:56.384Z,30.38
2023-01-22T10:11:59.721Z,43.85
2023-01-22T10:14:03.104Z,59.15
2023-01-22T10:16:05.611Z,43.78
2023-01-22T10:18:20.850Z,102.55
2023-01-22T10:20:24.728Z,86.82
2023-01-22T10:22:27.487Z,38.15
2023-01-22T10:24:30.260Z,35.53
2023-01-22T10:26:40.334Z,51.53
2023-01-22T10:28:47.634Z,45.05
2023-01-22T10:30:50.484Z,21.33
2023-01-22T10:33:06.517Z,28.67
2023-01-22T10:35:11.023Z,72.40
2023-01-22T10:37:18.218Z,31.77
2023-01-22T10:39:20.900Z,37.70
2023-01-22T10:41:22.400Z,49.45
2023-01-22T10:43:39.171Z,50.78
2023-01-22T10:45:52.726Z,127.63
2023-01-22T10:48:23.726Z,79.60
2023-01-22T10:50:25.273Z,63.95
2023-01-22T10:52:41.638Z,65.60
2023-01-22T10:54:47.020Z,63.28
2023-01-22T10:56:50.264Z,34.22
2023-01-22T10:58:52.243Z,49.13
2023-01-22T11:01:06.713Z,44.13
2023-01-22T11:03:23.435Z,60.53
2023-01-22T11:05:27.453Z,48.55
2023-01-22T11:07:33.376Z,26.38
2023-01-22T11:09:44.802Z,81.18
2023-01-22T11:11:56.534Z,51.72
2023-01-22T11:14:02.553Z,53.83
2023-01-22T11:16:16.429Z,31.98
2023-01-22T11:18:42.542Z,115.57
2023-01-22T11:20:54.110Z,80.75
2023-01-22T11:23:27.155Z,70.65
2023-01-22T11:25:38.880Z,38.67
2023-01-22T11:27:59.281Z,28.63
2023-01-22T11:30:21.340Z,63.45
2023-01-22T11:32:35.304Z,39.67
2023-01-22T11:34:59.897Z,39.90
2023-01-22T11:37:15.756Z,43.80
2023-01-22T11:39:50.713Z,38.42
2023-01-22T11:42:16.599Z,62.20
2023-01-22T11:44:56.578Z,51.47
2023-01-22T11:47:46.226Z,80.38
2023-01-22T11:50:12.394Z,66.93
2023-01-22T11:52:35.480Z,53.15
2023-01-22T11:54:45.839Z,64.78
2023-01-22T11:56:49.951Z,62.65
2023-01-22T11:59:06.979Z,39.85
2023-01-22T12:01:14.697Z,48.80
2023-01-22T12:03:30.431Z,53.67
2023-01-22T12:05:41.055Z,51.35
2023-01-22T12:07:58.666Z,48.63
2023-01-22T12:10:06.315Z,45.88
2023-01-22T12:12:26.575Z,42.75
2023-01-22T12:14:59.958Z,42.63
2023-01-22T12:17:20.094Z,47.83
2023-01-22T12:19:41.732Z,45.60
2023-01-22T12:21:52.132Z,40.60
2023-01-22T12:24:09.016Z,50.28
2023-01-22T12:26:25.356Z,65.00
2023-01-22T12:28:32.405Z,53.58
2023-01-22T12:30:37.110Z,48.35
2023-01-22T12:32:42.140Z,42.85
2023-01-22T12:34:52.951Z,75.85
2023-01-22T12:36:55.769Z,67.32
2023-01-22T12:39:00.560Z,57.28
2023-01-22T12:41:21.124Z,104.88
2023-01-22T12:44:10.672Z,146.90
2023-01-22T12:48:32.615Z,62.00
2023-01-22T12:50:34.131Z,56.25
2023-01-22T12:52:38.151Z,43.60
2023-01-22T12:54:39.721Z,70.03
2023-01-22T12:56:41.308Z,60.65
2023-01-22T12:58:43.303Z,35.88
2023-01-22T13:00:45.016Z,72.45
2023-01-22T13:02:46.578Z,57.30
2023-01-22T13:04:48.447Z,57.30
2023-01-22T13:06:49.916Z,52.80
2023-01-22T13:08:51.480Z,54.95
2023-01-22T13:11:00.185Z,37.35
2023-01-22T13:13:27.809Z,51.88
2023-01-22T13:15:34.066Z,41.25
2023-01-22T13:17:36.637Z,51.60
2023-01-22T13:19:44.869Z,41.30
2023-01-22T13:21:47.745Z,50.97
2023-01-22T13:23:49.873Z,47.63
2023-01-22T13:25:56.367Z,60.60
2023-01-22T13:28:00.157Z,58.33
2023-01-22T13:30:14.319Z,74.72
2023-01-22T13:32:21.421Z,66.32
2023-01-22T13:34:23.536Z,57.10
2023-01-22T13:36:26.148Z,67.68
2023-01-22T13:38:32.759Z,91.60
2023-01-22T13:40:46.428Z,82.60
2023-01-22T13:42:53.822Z,97.90
2023-01-22T13:44:55.985Z,68.20
2023-01-22T13:46:57.702Z,94.95
2023-01-22T13:49:02.113Z,78.57
2023-01-22T13:51:06.913Z,130.05
2023-01-22T13:53:16.791Z,86.93
2023-01-22T13:55:22.200Z,112.68
2023-01-22T13:57:23.792Z,128.95
2023-01-22T13:59:36.635Z,108.65
2023-01-22T14:01:38.387Z,73.68
2023-01-22T14:03:42.539Z,83.40
2023-01-22T14:05:44.116Z,84.47
2023-01-22T14:07:45.854Z,83.07
2023-01-22T14:09:47.361Z,87.60
2023-01-22T14:11:50.125Z,92.82
2023-01-22T14:13:53.320Z,81.22
2023-01-22T14:16:06.948Z,67.80
2023-01-22T14:18:16.805Z,100.28
2023-01-22T14:20:18.907Z,87.82
2023-01-22T14:22:22.140Z,76.20
2023-01-22T14:24:23.918Z,72.38
2023-01-22T14:26:25.475Z,69.20
2023-01-22T14:28:30.013Z,73.25
2023-01-22T14:30:31.691Z,51.83
2023-01-22T14:32:33.210Z,68.05
2023-01-22T14:34:34.767Z,99.90
2023-01-22T14:36:36.372Z,125.60
2023-01-22T14:38:37.943Z,102.50
2023-01-22T14:40:40.693Z,82.68
2023-01-22T14:42:42.427Z,96.78
2023-01-22T14:44:43.941Z,100.30
2023-01-22T14:46:45.443Z,97.38
2023-01-22T14:48:47.263Z,105.63
2023-01-22T14:50:50.091Z,80.43
2023-01-22T14:52:51.757Z,111.35
2023-01-22T14:54:55.184Z,106.13
2023-01-22T14:56:58.314Z,123.38
2023-01-22T14:58:59.885Z,108.97
2023-01-22T15:01:01.422Z,151.95
2023-01-22T15:03:03.136Z,122.97
2023-01-22T15:05:04.906Z,100.20
2023-01-22T15:07:06.540Z,224.80
2023-01-22T15:09:08.125Z,74.43
2023-01-22T15:11:09.663Z,117.07
2023-01-22T15:13:11.137Z,142.55
2023-01-22T15:15:12.770Z,87.72
2023-01-22T15:17:14.415Z,124.38
2023-01-22T15:19:18.341Z,166.55
2023-01-22T15:21:20.149Z,147.38
2023-01-22T15:23:21.650Z,288.63
2023-01-22T15:25:23.279Z,95.78
2023-01-22T15:27:25.017Z,148.38
2023-01-22T15:29:26.591Z,91.53
2023-01-22T15:31:28.490Z,107.50
2023-01-22T15:33:30.050Z,104.85
2023-01-22T15:35:31.574Z,106.20
2023-01-22T15:37:33.094Z,137.23
2023-01-22T15:39:34.905Z,101.75
2023-01-22T15:41:37.249Z,89.70
2023-01-22T15:43:38.738Z,96.35
2023-01-22T15:45:40.444Z,114.22
2023-01-22T15:47:42.042Z,128.32
2023-01-22T15:49:43.703Z,126.97
2023-01-22T15:51:45.452Z,124.97
2023-01-22T15:53:51.783Z,102.65
2023-01-22T15:55:53.270Z,82.07
2023-01-22T15:57:54.863Z,102.38
2023-01-22T15:59:56.539Z,135.52
2023-01-22T16:01:58.079Z,158.02
2023-01-22T16:04:01.090Z,117.78
2023-01-22T16:06:08.704Z,133.18
2023-01-22T16:08:10.292Z,108.90
2023-01-22T16:10:11.902Z,103.80
2023-01-22T16:12:13.509Z,135.43
2023-01-22T16:14:15.067Z,122.53
2023-01-22T16:16:30.332Z,133.50
2023-01-22T16:18:33.424Z,112.78
2023-01-22T16:20:34.965Z,129.25
2023-01-22T16:22:36.454Z,136.63
2023-01-22T16:24:38.514Z,142.15
2023-01-22T16:26:40.077Z,148.20
2023-01-22T16:28:42.612Z,160.38
2023-01-22T16:30:44.149Z,190.88
2023-01-22T16:32:46.365Z,162.82
2023-01-22T16:34:48.084Z,154.05
2023-01-22T16:36:49.648Z,212.40
2023-01-22T16:38:51.985Z,257.85
2023-01-22T16:40:53.734Z,181.95
2023-01-22T16:42:59.137Z,297.40
2023-01-22T16:45:00.754Z,212.65
2023-01-22T16:47:02.274Z,181.23
2023-01-22T16:49:06.879Z,251.75
2023-01-22T16:51:16.628Z,213.07
2023-01-22T16:53:18.260Z,200.23
2023-01-22T16:55:20.121Z,125.95
2023-01-22T16:57:21.872Z,149.43
2023-01-22T16:59:24.288Z,130.65
2023-01-22T17:01:26.622Z,109.95
2023-01-22T17:03:29.720Z,123.57
2023-01-22T17:05:31.386Z,136.48
2023-01-22T17:07:34.382Z,118.60
2023-01-22T17:09:36.362Z,172.85
2023-01-22T17:11:38.008Z,183.90
2023-01-22T17:13:39.666Z,190.57
2023-01-22T17:15:42.310Z,231.82
2023-01-22T17:17:44.072Z,185.50
2023-01-22T17:19:46.021Z,210.20
2023-01-22T17:21:51.930Z,145.38
2023-01-22T17:23:53.473Z,198.75
2023-01-22T17:25:54.999Z,212.52
2023-01-22T17:27:56.507Z,142.93
2023-01-22T17:29:58.034Z,129.25
2023-01-22T17:31:59.742Z,151.63
2023-01-22T17:34:02.969Z,117.38
2023-01-22T17:36:05.796Z,90.95
2023-01-22T17:38:08.096Z,152.68
2023-01-22T17:40:10.442Z,99.75
2023-01-22T17:42:12.431Z,248.70
2023-01-22T17:44:14.009Z,258.05
2023-01-22T17:46:21.189Z,244.02
2023-01-22T17:48:22.727Z,187.40
2023-01-22T17:50:24.191Z,180.73
2023-01-22T17:52:25.887Z,227.88
2023-01-22T17:54:27.563Z,189.23
2023-01-22T17:56:35.128Z,167.38
2023-01-22T17:58:37.343Z,171.02
2023-01-22T18:00:39.131Z,178.68
2023-01-22T18:02:40.915Z,146.02
2023-01-22T18:04:42.730Z,166.05
2023-01-22T18:06:44.627Z,153.38
2023-01-22T18:08:46.286Z,139.13
2023-01-22T18:10:47.996Z,139.77
2023-01-22T18:12:49.705Z,148.50
2023-01-22T18:14:51.411Z,145.50
2023-01-22T18:16:53.106Z,150.93
2023-01-22T18:18:57.102Z,177.25
2023-01-22T18:20:58.718Z,143.50
2023-01-22T18:23:00.444Z,126.70
2023-01-22T18:25:02.013Z,101.50
2023-01-22T18:27:03.712Z,144.85
2023-01-22T18:29:06.445Z,211.57
2023-01-22T18:31:15.953Z,237.52
2023-01-22T18:35:21.970Z,237.80
2023-01-22T18:37:23.648Z,141.68
2023-01-22T18:39:26.019Z,102.68
2023-01-22T18:41:28.290Z,129.98
2023-01-22T18:43:29.771Z,179.50
2023-01-22T18:45:34.814Z,123.63
2023-01-22T18:47:37.171Z,143.50
2023-01-22T18:49:38.695Z,121.18
2023-01-22T18:51:42.126Z,132.93
2023-01-22T18:53:43.718Z,167.27
2023-01-22T18:55:45.562Z,164.93
2023-01-22T18:58:17.288Z,274.80
2023-01-22T19:00:20.265Z,168.52
2023-01-22T19:02:22.173Z,244.75
2023-01-22T19:04:23.726Z,254.40
2023-01-22T19:06:29.622Z,208.15
2023-01-22T19:08:31.667Z,163.82
2023-01-22T19:10:33.255Z,188.68
2023-01-22T19:12:34.829Z,185.73
2023-01-22T19:14:36.409Z,218.32
2023-01-22T19:16:38.406Z,177.45
2023-01-22T19:18:46.689Z,193.52
2023-01-22T19:20:48.346Z,179.35
2023-01-22T19:22:49.838Z,160.57
2023-01-22T19:24:51.366Z,161.73
2023-01-22T19:26:54.913Z,186.80
2023-01-22T19:28:59.121Z,159.30
2023-01-22T19:31:00.981Z,199.35
2023-01-22T19:33:02.627Z,146.25
2023-01-22T19:35:06.279Z,142.38
2023-01-22T19:37:07.927Z,127.47
2023-01-22T19:39:12.534Z,234.15
2023-01-22T19:41:14.782Z,200.35
2023-01-22T19:43:16.371Z,276.30
2023-01-22T19:45:18.304Z,216.95
2023-01-22T19:47:20.186Z,233.02
2023-01-22T19:49:21.841Z,237.55
2023-01-22T19:51:24.861Z,180.38
2023-01-22T19:53:27.156Z,135.73
2023-01-22T19:55:29.758Z,163.82
2023-01-22T19:57:31.957Z,167.80
2023-01-22T19:59:33.426Z,180.25
2023-01-22T20:01:37.021Z,221.80
2023-01-22T20:03:38.725Z,236.30
2023-01-22T20:05:42.417Z,250.35
2023-01-22T20:07:44.854Z,300.40
2023-01-22T20:09:46.415Z,348.30
2023-01-22T20:11:55.480Z,435.88
2023-01-22T20:13:58.134Z,303.15
2023-01-22T20:16:01.201Z,347.27
2023-01-22T20:18:02.765Z,177.32
2023-01-22T20:20:05.873Z,375.30
2023-01-22T20:22:10.861Z,202.45
2023-01-22T20:24:12.566Z,267.00
2023-01-22T20:26:16.266Z,344.73
2023-01-22T20:28:18.729Z,256.75
2023-01-22T20:30:20.572Z,341.63
2023-01-22T20:32:22.764Z,179.50
2023-01-22T20:34:24.600Z,237.27
2023-01-22T20:36:29.114Z,284.80
2023-01-22T20:38:31.179Z,319.20
2023-01-22T20:40:34.727Z,336.70
2023-01-22T20:42:36.392Z,295.77
2023-01-22T20:44:37.941Z,329.30
2023-01-22T20:46:44.818Z,262.02
2023-01-22T20:48:47.553Z,239.35
2023-01-22T20:50:49.320Z,475.23
2023-01-22T20:52:53.516Z,351.05
2023-01-22T20:55:01.724Z,311.40
2023-01-22T20:57:03.772Z,279.63
2023-01-22T20:59:08.154Z,232.90
2023-01-22T21:01:16.494Z,261.33
2023-01-22T21:03:18.206Z,205.73
2023-01-22T21:05:19.946Z,299.08
2023-01-22T21:07:21.787Z,346.63
2023-01-22T21:09:23.416Z,295.17
2023-01-22T21:11:27.174Z,350.90
2023-01-22T21:13:29.085Z,253.68
2023-01-22T21:15:33.553Z,271.48
2023-01-22T21:17:35.190Z,310.80
2023-01-22T21:19:36.808Z,275.67
2023-01-22T21:21:38.472Z,306.50
2023-01-22T21:23:40.764Z,324.55
2023-01-22T21:25:42.526Z,324.63
2023-01-22T21:27:44.145Z,260.52
2023-01-22T21:29:45.882Z,278.48
2023-01-22T21:31:50.187Z,293.58
2023-01-22T21:34:02.447Z,318.77
2023-01-22T21:36:06.038Z,268.45
2023-01-22T21:38:07.588Z,396.15
2023-01-22T21:40:12.427Z,336.45
2023-01-22T21:42:33.361Z,290.02
2023-01-22T21:44:53.125Z,304.92
2023-01-22T21:46:54.671Z,359.58
2023-01-22T21:48:58.767Z,277.20
2023-01-22T21:51:02.658Z,308.08
2023-01-22T21:53:04.222Z,319.15
2023-01-22T21:55:06.867Z,301.02
2023-01-22T21:57:12.536Z,360.38
2023-01-22T21:59:14.338Z,371.25
2023-01-22T22:01:19.192Z,306.30
2023-01-22T22:03:20.818Z,355.60
2023-01-22T22:05:22.318Z,299.17
2023-01-22T22:07:23.866Z,222.65
2023-01-22T22:09:28.073Z,305.27
2023-01-22T22:11:29.627Z,210.50
2023-01-22T22:13:35.037Z,239.77
2023-01-22T22:15:36.610Z,318.58
2023-01-22T22:17:38.282Z,310.80
2023-01-22T22:19:39.780Z,302.40
2023-01-22T22:21:41.640Z,359.10
2023-01-22T22:23:43.320Z,350.05
2023-01-22T22:25:48.886Z,321.38
2023-01-22T22:27:50.438Z,291.00
2023-01-22T22:29:53.453Z,257.63
2023-01-22T22:31:55.539Z,287.48
2023-01-22T22:33:57.725Z,283.42
2023-01-22T22:36:00.812Z,225.98
2023-01-22T22:38:02.348Z,277.88
2023-01-22T22:40:04.902Z,376.70
2023-01-22T22:42:06.424Z,303.60
2023-01-22T22:44:10.194Z,261.08
2023-01-22T22:46:18.429Z,443.17
2023-01-22T22:48:21.215Z,303.30
2023-01-22T22:50:22.771Z,254.45
2023-01-22T22:52:24.329Z,261.63
2023-01-22T22:54:25.959Z,481.95
2023-01-22T22:56:28.570Z,285.48
2023-01-22T22:58:30.086Z,302.60
2023-01-22T23:00:31.612Z,405.15
2023-01-22T23:02:33.139Z,374.50
2023-01-22T23:04:35.328Z,350.40
2023-01-22T23:06:37.173Z,331.75
2023-01-22T23:08:40.381Z,331.30
2023-01-22T23:10:41.952Z,227.77
2023-01-22T23:12:43.457Z,273.55
2023-01-22T23:14:44.953Z,296.95
2023-01-22T23:16:46.537Z,343.30
2023-01-22T23:18:50.749Z,298.38
2023-01-22T23:20:52.243Z,331.92
2023-01-22T23:22:55.639Z,346.02
2023-01-22T23:24:57.160Z,292.83
2023-01-22T23:26:58.731Z,303.00
2023-01-22T23:29:03.095Z,286.48
2023-01-22T23:31:09.587Z,353.00
2023-01-22T23:33:11.186Z,350.83
2023-01-22T23:35:12.835Z,265.38
2023-01-22T23:37:14.370Z,338.25
2023-01-22T23:39:18.590Z,189.07
2023-01-22T23:41:20.901Z,290.77
2023-01-22T23:43:22.463Z,315.15
2023-01-22T23:45:23.981Z,347.33
2023-01-22T23:47:27.286Z,318.63
2023-01-22T23:49:28.807Z,457.52
2023-01-22T23:51:30.748Z,412.15
2023-01-22T23:53:36.686Z,253.85
2023-01-22T23:55:38.227Z,235.35
2023-01-22T23:57:39.949Z,288.80
2023-01-22T23:59:41.510Z,222.57
